createdAt,value
2023-01-21T00:02:21.891Z,17.80
2023-01-21T00:04:50.677Z,17.52
2023-01-21T00:07:19.143Z,17.35
2023-01-21T00:09:47.997Z,18.27
2023-01-21T00:12:16.753Z,18.23
2023-01-21T00:14:45.277Z,18.40
2023-01-21T00:17:13.958Z,19.90
2023-01-21T00:19:42.749Z,19.98
2023-01-21T00:22:10.997Z,19.65
2023-01-21T00:24:39.602Z,19.00
2023-01-21T00:27:08.449Z,19.98
2023-01-21T00:29:37.182Z,18.25
2023-01-21T00:32:05.687Z,18.30
2023-01-21T00:34:34.417Z,19.05
2023-01-21T00:37:03.039Z,18.20
2023-01-21T00:39:31.328Z,19.42
2023-01-21T00:41:59.548Z,18.42
2023-01-21T00:44:27.684Z,19.52
2023-01-21T00:46:56.028Z,19.15
2023-01-21T00:49:24.788Z,18.40
2023-01-21T00:51:53.042Z,18.30
2023-01-21T00:54:21.465Z,17.58
2023-01-21T00:56:50.178Z,17.98
2023-01-21T00:59:21.738Z,17.00
2023-01-21T01:01:50.277Z,17.05
2023-01-21T01:04:19.433Z,18.08
2023-01-21T01:06:47.692Z,17.88
2023-01-21T01:09:16.379Z,17.42
2023-01-21T01:11:44.788Z,17.42
2023-01-21T01:14:13.097Z,15.82
2023-01-21T01:16:41.903Z,17.67
2023-01-21T01:19:11.993Z,17.13
2023-01-21T01:21:40.745Z,17.73
2023-01-21T01:24:09.261Z,16.73
2023-01-21T01:26:37.457Z,16.95
2023-01-21T01:29:06.730Z,16.23
2023-01-21T01:31:35.175Z,17.10
2023-01-21T01:34:03.447Z,15.63
2023-01-21T01:36:31.633Z,15.75
2023-01-21T01:39:00.343Z,16.48
2023-01-21T01:41:30.369Z,16.10
2023-01-21T01:44:04.884Z,16.70
2023-01-21T01:46:36.140Z,16.52
2023-01-21T01:49:07.473Z,18.17
2023-01-21T01:51:59.350Z,15.20
2023-01-21T01:54:32.147Z,14.57
2023-01-21T01:57:03.333Z,16.08
2023-01-21T01:59:33.414Z,16.20
2023-01-21T02:02:07.327Z,15.05
2023-01-21T02:04:43.232Z,15.77
2023-01-21T02:07:12.197Z,15.20
2023-01-21T02:09:40.693Z,15.48
2023-01-21T02:12:09.229Z,15.50
2023-01-21T02:14:43.538Z,16.95
2023-01-21T02:17:49.344Z,15.88
2023-01-21T02:20:20.170Z,17.00
2023-01-21T02:23:16.514Z,16.50
2023-01-21T02:26:14.661Z,16.10
2023-01-21T02:31:42.135Z,15.18
2023-01-21T02:34:24.596Z,16.30
2023-01-21T02:37:03.528Z,17.55
2023-01-21T02:39:59.057Z,16.83
2023-01-21T02:42:39.059Z,16.65
2023-01-21T02:45:11.376Z,15.93
2023-01-21T02:47:56.165Z,16.17
2023-01-21T02:50:31.181Z,16.60
2023-01-21T02:53:05.089Z,16.98
2023-01-21T02:55:37.951Z,16.83
2023-01-21T02:58:16.312Z,16.50
2023-01-21T03:01:10.912Z,17.17
2023-01-21T03:03:48.574Z,15.27
2023-01-21T03:06:23.258Z,15.68
2023-01-21T03:09:20.987Z,15.93
2023-01-21T03:12:20.289Z,16.60
2023-01-21T03:15:18.893Z,16.38
2023-01-21T03:17:47.480Z,17.33
2023-01-21T03:20:39.192Z,16.38
2023-01-21T03:24:02.370Z,16.83
2023-01-21T03:26:58.417Z,17.27
2023-01-21T03:29:30.038Z,16.15
2023-01-21T03:32:04.744Z,17.02
2023-01-21T03:34:39.073Z,16.33
2023-01-21T03:37:16.831Z,18.17
2023-01-21T03:39:48.448Z,16.50
2023-01-21T03:42:18.455Z,16.50
2023-01-21T03:44:47.207Z,16.20
2023-01-21T03:47:24.384Z,16.55
2023-01-21T03:50:05.205Z,17.10
2023-01-21T03:52:33.467Z,16.13
2023-01-21T03:55:02.084Z,16.38
2023-01-21T03:57:30.852Z,15.85
2023-01-21T03:59:59.408Z,14.75
2023-01-21T04:02:27.754Z,14.95
2023-01-21T04:04:56.125Z,15.55
2023-01-21T04:07:24.747Z,14.82
2023-01-21T04:09:53.317Z,14.23
2023-01-21T04:12:21.773Z,13.70
2023-01-21T04:14:50.469Z,15.55
2023-01-21T04:17:19.088Z,14.75
2023-01-21T04:19:47.878Z,13.43
2023-01-21T04:22:16.440Z,14.65
2023-01-21T04:24:48.568Z,13.52
2023-01-21T04:27:17.738Z,13.18
2023-01-21T04:29:46.367Z,13.57
2023-01-21T04:32:15.163Z,12.68
2023-01-21T04:34:43.733Z,12.68
2023-01-21T04:37:12.947Z,13.55
2023-01-21T04:39:41.617Z,13.32
2023-01-21T04:42:09.939Z,13.30
2023-01-21T04:44:38.488Z,12.10
2023-01-21T04:47:07.700Z,12.88
2023-01-21T04:49:36.254Z,13.48
2023-01-21T04:52:04.698Z,13.60
2023-01-21T17:31:58.373Z,4.73
2023-01-21T17:34:29.986Z,4.43
2023-01-21T17:36:59.313Z,5.13
2023-01-21T17:39:46.665Z,5.55
2023-01-21T17:42:24.243Z,6.22
2023-01-21T17:44:56.403Z,5.78
2023-01-21T17:47:31.188Z,6.45
2023-01-21T17:50:29.592Z,6.85
2023-01-21T17:53:04.873Z,6.57
2023-01-21T17:55:37.344Z,6.65
2023-01-21T17:58:33.205Z,7.00
2023-01-21T18:01:04.050Z,7.28
2023-01-21T18:03:32.849Z,7.05
2023-01-21T18:06:01.572Z,7.05
2023-01-21T18:08:30.124Z,7.47
2023-01-21T18:10:58.390Z,8.75
2023-01-21T18:13:27.019Z,8.00
2023-01-21T18:15:55.608Z,7.15
2023-01-21T18:18:29.478Z,6.63
2023-01-21T18:20:58.364Z,6.32
2023-01-21T18:23:26.883Z,6.10
2023-01-21T18:25:55.714Z,6.32
2023-01-21T18:28:29.119Z,5.95
2023-01-21T18:30:58.950Z,6.13
2023-01-21T18:33:29.112Z,6.78
2023-01-21T18:35:57.997Z,5.85
2023-01-21T18:38:33.406Z,6.38
2023-01-21T18:41:02.020Z,5.90
2023-01-21T18:43:30.464Z,6.07
2023-01-21T18:45:59.498Z,6.13
2023-01-21T18:48:30.308Z,6.05
2023-01-21T18:50:58.730Z,5.78
2023-01-21T18:53:27.308Z,7.03
2023-01-21T18:55:56.055Z,5.93
2023-01-21T18:58:24.983Z,7.05
2023-01-21T19:00:53.673Z,5.88
2023-01-21T19:03:23.835Z,6.90
2023-01-21T19:05:53.349Z,8.13
2023-01-21T19:08:25.575Z,8.30
2023-01-21T19:10:54.770Z,7.38
2023-01-21T19:13:23.304Z,7.00
2023-01-21T19:15:51.721Z,8.25
2023-01-21T19:18:20.362Z,6.88
2023-01-21T19:20:49.758Z,6.50
2023-01-21T19:23:19.068Z,5.15
2023-01-21T19:25:58.452Z,7.10
2023-01-21T19:28:27.034Z,6.03
2023-01-21T19:30:56.136Z,5.70
2023-01-21T19:33:25.133Z,6.05
2023-01-21T19:36:17.871Z,5.30
2023-01-21T19:38:51.648Z,5.85
2023-01-21T19:41:20.310Z,5.30
2023-01-21T19:43:48.986Z,5.95
2023-01-21T19:46:24.235Z,5.68
2023-01-21T19:48:54.162Z,5.43
2023-01-21T19:51:22.844Z,5.78
2023-01-21T19:53:51.867Z,5.63
2023-01-21T19:56:24.368Z,6.22
2023-01-21T19:58:52.769Z,5.70
2023-01-21T20:01:21.364Z,5.93
2023-01-21T20:03:59.697Z,5.55
2023-01-21T20:06:34.775Z,5.75
2023-01-21T20:09:03.210Z,6.05
2023-01-21T20:11:31.839Z,5.60
2023-01-21T20:14:00.106Z,5.32
2023-01-21T20:16:28.572Z,5.80
2023-01-21T20:18:57.130Z,5.20
2023-01-21T20:21:25.563Z,5.50
2023-01-21T20:23:53.711Z,5.95
2023-01-21T20:26:26.995Z,5.93
2023-01-21T20:28:55.634Z,5.63
2023-01-21T20:31:24.388Z,5.72
2023-01-21T20:33:53.236Z,6.13
2023-01-21T20:36:25.858Z,6.15
2023-01-21T20:38:55.994Z,5.32
2023-01-21T20:41:24.442Z,5.68
2023-01-21T20:43:53.039Z,5.63
2023-01-21T20:46:26.615Z,5.68
2023-01-21T20:48:56.189Z,5.93
2023-01-21T20:51:25.642Z,5.75
2023-01-21T20:53:54.636Z,5.80
2023-01-21T20:56:27.695Z,5.47
2023-01-21T20:58:56.713Z,5.72
2023-01-21T21:01:27.062Z,5.63
2023-01-21T21:03:57.461Z,6.22
2023-01-21T21:06:30.699Z,5.85
2023-01-21T21:08:59.805Z,6.30
2023-01-21T21:11:28.685Z,6.90
2023-01-21T21:13:57.756Z,6.18
2023-01-21T21:16:30.789Z,6.35
2023-01-21T21:19:01.377Z,5.90
2023-01-21T21:21:33.204Z,5.40
2023-01-21T21:24:02.784Z,5.93
2023-01-21T21:26:32.306Z,6.75
2023-01-21T21:29:00.874Z,5.95
2023-01-21T21:31:33.315Z,5.85
2023-01-21T21:34:02.011Z,6.13
2023-01-21T21:36:30.958Z,6.20
2023-01-21T21:39:00.589Z,5.80
2023-01-21T21:41:49.520Z,5.85
2023-01-21T21:44:18.323Z,6.13
2023-01-21T21:47:05.410Z,6.00
2023-01-21T21:49:34.248Z,5.68
2023-01-21T21:52:02.401Z,5.78
2023-01-21T21:54:30.948Z,6.93
2023-01-21T21:56:59.675Z,6.43
2023-01-21T21:59:28.514Z,5.90
2023-01-21T22:01:57.962Z,6.57
2023-01-21T22:04:27.370Z,7.00
2023-01-21T22:06:55.601Z,6.63
2023-01-21T22:09:24.283Z,7.43
2023-01-21T22:11:53.343Z,6.32
2023-01-21T22:14:22.166Z,6.53
2023-01-21T22:16:51.650Z,5.97
2023-01-21T22:19:20.604Z,6.18
2023-01-21T22:21:48.817Z,6.68
2023-01-21T22:24:17.499Z,7.32
2023-01-21T22:26:46.732Z,7.50
2023-01-21T22:29:15.470Z,6.57
2023-01-21T22:31:44.456Z,7.43
2023-01-21T22:34:14.035Z,7.75
2023-01-21T22:36:47.879Z,6.97
2023-01-21T22:39:16.607Z,7.50
2023-01-21T22:41:45.111Z,7.22
2023-01-21T22:44:13.729Z,7.00
2023-01-21T22:46:49.037Z,6.25
2023-01-21T22:49:17.739Z,5.70
2023-01-21T22:51:46.327Z,5.93
2023-01-21T22:54:15.289Z,6.57
2023-01-21T22:56:52.571Z,6.43
2023-01-21T22:59:21.698Z,6.43
2023-01-21T23:01:51.776Z,6.63
2023-01-21T23:04:20.669Z,6.55
2023-01-21T23:06:50.984Z,7.43
2023-01-21T23:09:19.337Z,8.10
2023-01-21T23:11:48.001Z,7.68
2023-01-21T23:14:16.955Z,8.50
2023-01-21T23:16:45.621Z,8.27
2023-01-21T23:19:14.470Z,7.07
2023-01-21T23:21:42.563Z,7.07
2023-01-21T23:24:10.799Z,8.30
2023-01-21T23:26:42.733Z,8.55
2023-01-21T23:29:11.560Z,7.72
2023-01-21T23:31:40.333Z,7.53
2023-01-21T23:34:12.706Z,7.60
2023-01-21T23:36:41.678Z,8.00
2023-01-21T23:39:09.824Z,8.00
2023-01-21T23:41:38.687Z,7.90
2023-01-21T23:44:08.488Z,8.05
2023-01-21T23:46:38.477Z,7.57
2023-01-21T23:49:07.267Z,7.45
2023-01-21T23:51:36.282Z,7.18
2023-01-21T23:54:05.048Z,8.05
2023-01-21T23:56:33.717Z,7.72
2023-01-21T23:59:02.369Z,7.93
